Richmond, VA (23236)

8:43 PM EDT on March 29, 2015 (GMT -0400)
2 Miles SSE Midlothian | | Change Station
CLOSE
Current Station
Personal Weather Station
Location: Midlothian, VA
Elevation: 266 ft
Nearby Weather Stations

Elev 266 ft 37.47 °N, 77.62 °W | Updated 2 minutes ago

Partly Cloudy
Partly Cloudy
40.0 °F
Feels Like 40 °F
N
0.0
Wind Variable Wind from West
Gusts 0.0 mph

Today
High -- | Low -- °F
--% Chance of Precip.
Yesterday
High -- | Low -- °F
Precip. -- in
7:00 AM 7:30 PM
Waxing Gibbous, 75% visible
Pressure 30.27 in
Visibility 10.0 miles
Clouds Mostly Cloudy 30000 ft
Windchill 40 °F
Dew Point 17 °F
Humidity 39%
Rainfall 0.00 in
Snow Depth Not available.
UV 0 out of 12
Pollen 8.50 out of 12
Air Quality Not available.
Flu Activity Not available.
METAR KRIC 292354Z 19006KT 10SM BKN300 04/M10 A3024 RMK AO2 SLP248 T00441100 10100 20044 58010

More Conditions Fewer Conditions

Pressure 30.27 in
Visibility 10.0 miles
Clouds Mostly Cloudy 30000 ft
Windchill 40 °F
Dew Point 17 °F
Humidity 39%
Rainfall 0.00 in
Snow Depth Not available.
UV 0 out of 12
Pollen 8.50 out of 12
Air Quality Not available.
Flu Activity Not available.
METAR KRIC 292354Z 19006KT 10SM BKN300 04/M10 A3024 RMK AO2 SLP248 T00441100 10100 20044 58010

More Conditions Fewer Conditions

10-Day Weather Forecast

Almanac

Astronomy

Mar. 29, 2015 Rise Set
Actual Time
Civil Twilight
Nautical Twilight
Astronomical Twilight
Moon
Length of Visible Light
Length of Day
Tomorrow will be .
, % of the Moon is Illuminated

Today's Extremes

State Highs State Lows

Community

WunderPhotos

Upload Photos

1,809,389 photos uploaded!

WunderBlogs® & News

Nearby

Air Quality

  Air Quality AQ Index Pollutant
Not available.

Snow Depth

Station Depth Elevation

Earthquake Activity

City Distance Mag. Time & Date
Minimum magnitude displayed is 2.5.

Coastal Water Temperatures

Place Temperature

Stations

Nearby Weather Stations

Station Location Temp. Windchill Dew Point Humidity Wind Precip. Elev Updated Type